Castleford, Idaho
Current Conditions -  °F | °C
As of 7:53 AM on Saturday 25 Oct 2014 (Local Time) from KTWF Reporting Station
Clear Clear  
Wind Chill: 61°   Ceiling: Unl
Heat Index: 61°   Visibility: 10mi
Dew Point: 28°   Wind: 15mph
Humidity: 29%   Direction: 160°SSE
Pressure: 29.92"   Gusts: NA
Location:  42.52°N, 114.87°W
Report Text: KTWF 251353Z 16013KT 10SM CLR 16/M02 A2992 RMK AO2 SLP098 T01611022
Loading
Personal Weather Stations






























Interactive Weather Map
Tropical Storm Tracking
New forecast layout! Learn more

10-Day Weather Forecast

Advertisements
Track Severe Weather on mobile